• Join FlightAware (Why Join?)
  • Login
  • US Flag 
Rudolph Flight #1: Scheduled 
08:05PM EST


 

Airport Tracker/Info


-or-


 

Live Flight TrackerFlight Track Log ✈ CPT8773 ✈ 17-Jun-2013 ✈ KCPR - KCOD

Flight Track Log - Related Links

Times and Time Zones

All times are in EDT time to prevent confusion due to time zone crossing. See the CPT8773 flight status page for this flight to view local times or setup timezone preferences in your user account.

Time Position Orientation Groundspeed Altitude Reporting Facility
EDT Latitude Longitude Course Direction KTS MPH feet Rate Location/Type
08:59AM 42.9847 -106.4850 308° West 133 153 7,200  Level Salt Lake Center
09:00AM 43.0219 -106.5075 336° Northwest 131 151 7,900 540 Climbing Salt Lake Center
09:01AM 43.0458 -106.5239 333° Northwest 130 150 8,300 420 Climbing Denver Center
09:02AM 43.0811 -106.5500 332° Northwest 129 148 8,800 540 Climbing Denver Center
09:03AM 43.0903 -106.2789 308° West  Level FlightAware Approximate
09:03AM 43.1133 -106.5717 334° Northwest 131 151 9,400  Level Denver Center
09:04AM 43.1148 -106.3218 308° West  Level FlightAware Approximate
09:04AM 43.1469 -106.5917 337° Northwest 134 154 9,900  Level Denver Center
09:05AM 43.1808 -106.6167 332° Northwest 128 147 10,400 540 Climbing Denver Center
09:06AM 43.2100 -106.6411 329° Northwest 127 146 11,000 540 Climbing Denver Center
09:07AM 43.2433 -106.6683 329° Northwest 125 144 11,500 480 Climbing Denver Center
09:08AM 43.2728 -106.6892 333° Northwest 124 143 12,000 240 Climbing Denver Center
09:09AM 43.3025 -106.7153 327° Northwest 131 151 12,000  Level Denver Center
09:10AM 43.3436 -106.7514 327° Northwest 153 176 12,000  Level Denver Center
09:11AM 43.3672 -106.7975 305° West 154 177 12,000  Level Denver Center
09:12AM 43.3886 -106.8461 301° West 153 176 12,000  Level Denver Center
09:13AM 43.4175 -106.8972 308° West 155 178 12,000  Level Denver Center
09:14AM 43.4425 -106.9439 306° West 156 180 12,000  Level Denver Center
09:15AM 43.4692 -106.9986 304° West 155 178 12,000  Level Denver Center
09:16AM 43.4944 -107.0433 308° West 156 180 12,000  Level Denver Center
09:17AM 43.5186 -107.0908 305° West 157 181 12,000  Level Denver Center
09:18AM 43.5467 -107.1450 306° West 157 181 12,000  Level Denver Center
09:19AM 43.5714 -107.1897 307° West 155 178 12,000  Level Denver Center
09:20AM 43.5961 -107.2369 306° West 157 181 12,000  Level Denver Center
09:21AM 43.6233 -107.2931 304° West 156 180 12,000  Level Salt Lake Center
09:22AM 43.6514 -107.3464 306° West 154 177 12,000  Level Salt Lake Center
09:23AM 43.6753 -107.3906 307° West 152 175 12,000  Level Salt Lake Center
09:24AM 43.6983 -107.4358 305° West 151 174 12,000  Level Salt Lake Center
09:25AM 43.7264 -107.4883 306° West 151 174 12,000  Level Salt Lake Center
09:26AM 43.7500 -107.5344 305° West 152 175 12,000  Level Salt Lake Center
09:27AM 43.7742 -107.5797 306° West 153 176 12,000  Level Salt Lake Center
09:28AM 43.8025 -107.6322 307° West 152 175 12,000  Level Salt Lake Center
09:29AM 43.8269 -107.6769 307° West 153 176 12,000  Level Salt Lake Center
09:30AM 43.8508 -107.7233 306° West 153 176 12,000  Level Salt Lake Center
09:31AM 43.8783 -107.7756 306° West 151 174 12,000  Level Salt Lake Center
09:32AM 43.9028 -107.8208 307° West 152 175 12,000  Level Salt Lake Center
09:33AM 43.9261 -107.8664 305° West 152 175 12,000  Level Salt Lake Center
09:34AM 43.9544 -107.9197 306° West 153 176 12,000  Level Salt Lake Center
09:35AM 43.9775 -107.9656 305° West 153 176 12,000  Level Salt Lake Center
09:36AM 44.0061 -108.0186 307° West 153 176 12,000  Level Salt Lake Center
09:37AM 44.0297 -108.0656 305° West 154 177 12,000  Level Salt Lake Center
09:38AM 44.0528 -108.1103 306° West 152 175 12,000  Level Salt Lake Center
09:39AM 44.0800 -108.1617 306° West 150 173 12,000  Level Salt Lake Center
09:40AM 44.1039 -108.2067 306° West 150 173 12,000  Level Salt Lake Center
09:41AM 44.1261 -108.2517 305° West 149 171 12,000  Level Salt Lake Center
09:42AM 44.1536 -108.3039 306° West 149 171 12,000  Level Salt Lake Center
09:43AM 44.1764 -108.3492 305° West 149 171 12,000  Level Salt Lake Center
09:45AM 44.2028 -108.4025 305° West 149 171 12,000  Level Salt Lake Center
09:46AM 44.2258 -108.4467 306° West 148 170 12,000  Level Salt Lake Center
09:47AM 44.2481 -108.4919 304° West 147 169 12,000 -180 Level Salt Lake Center
09:48AM 44.2767 -108.5436 308° West 148 170 11,700 -360 Descending Salt Lake Center
09:49AM 44.3028 -108.5917 307° West 154 177 11,300 -420 Descending Salt Lake Center